createdAt,value
2023-05-04T00:00:00.240Z,1017
2023-05-04T00:05:00.352Z,1017
2023-05-04T00:10:00.169Z,1017
2023-05-04T00:15:00.530Z,1017
2023-05-04T00:20:00.187Z,1017
2023-05-04T00:25:00.225Z,1017
2023-05-04T00:30:00.223Z,1017
2023-05-04T00:35:00.244Z,1017
2023-05-04T00:40:00.235Z,1016
2023-05-04T00:45:00.247Z,1017
2023-05-04T00:50:00.199Z,1016
2023-05-04T00:55:00.236Z,1016
2023-05-04T01:00:00.218Z,1016
2023-05-04T01:05:00.239Z,1016
2023-05-04T01:10:00.192Z,1016
2023-05-04T01:15:00.231Z,1016
2023-05-04T01:20:00.223Z,1016
2023-05-04T01:25:00.260Z,1016
2023-05-04T01:30:00.251Z,1016
2023-05-04T01:35:00.261Z,1016
2023-05-04T01:40:00.211Z,1016
2023-05-04T01:45:00.239Z,1016
2023-05-04T01:50:00.174Z,1016
2023-05-04T01:55:00.229Z,1016
2023-05-04T02:00:00.189Z,1016
2023-05-04T02:05:00.225Z,1016
2023-05-04T02:10:00.245Z,1016
2023-05-04T02:15:00.226Z,1016
2023-05-04T02:20:00.183Z,1016
2023-05-04T02:25:00.247Z,1016
2023-05-04T02:30:00.240Z,1016
2023-05-04T02:35:00.221Z,1016
2023-05-04T02:40:00.228Z,1016
2023-05-04T02:45:00.244Z,1016
2023-05-04T02:50:00.182Z,1016
2023-05-04T02:55:00.268Z,1016
2023-05-04T03:00:00.321Z,1016
2023-05-04T03:05:00.219Z,1016
2023-05-04T03:10:00.247Z,1016
2023-05-04T03:15:00.273Z,1016
2023-05-04T03:20:00.207Z,1016
2023-05-04T03:25:00.238Z,1016
2023-05-04T03:30:00.264Z,1016
2023-05-04T03:35:02.693Z,1016
2023-05-04T03:40:00.258Z,1016
2023-05-04T03:45:02.373Z,1015
2023-05-04T03:50:00.282Z,1016
2023-05-04T03:55:00.247Z,1016
2023-05-04T04:00:00.279Z,1016
2023-05-04T04:05:00.300Z,1015
2023-05-04T04:10:00.239Z,1015
2023-05-04T04:15:00.229Z,1015
2023-05-04T04:20:00.214Z,1015
2023-05-04T04:25:00.245Z,1015
2023-05-04T04:30:00.225Z,1015
2023-05-04T04:35:00.205Z,1015
2023-05-04T04:40:00.242Z,1015
2023-05-04T04:45:00.257Z,1015
2023-05-04T04:50:00.248Z,1015
2023-05-04T04:55:00.237Z,1015
2023-05-04T05:00:00.287Z,1015
2023-05-04T05:05:00.572Z,1015
2023-05-04T05:10:00.253Z,1015
2023-05-04T05:15:00.241Z,1016
2023-05-04T05:20:00.252Z,1015
2023-05-04T05:25:00.284Z,1015
2023-05-04T05:30:00.202Z,1015
2023-05-04T05:35:00.263Z,1015
2023-05-04T05:40:00.295Z,1015
2023-05-04T05:45:00.228Z,1015
2023-05-04T05:50:00.208Z,1015
2023-05-04T05:55:02.466Z,1015
2023-05-04T06:00:00.277Z,1015
2023-05-04T06:05:00.252Z,1015
2023-05-04T06:10:00.295Z,1015
2023-05-04T06:15:00.299Z,1015
2023-05-04T06:20:00.260Z,1015
2023-05-04T06:25:05.099Z,1015
2023-05-04T06:30:00.251Z,1015
2023-05-04T06:35:00.285Z,1015
2023-05-04T06:40:00.317Z,1015
2023-05-04T06:45:00.264Z,1015
2023-05-04T06:50:00.255Z,1015
2023-05-04T06:55:00.275Z,1015
2023-05-04T07:00:00.325Z,1015
2023-05-04T07:05:00.270Z,1015
2023-05-04T07:10:00.245Z,1015
2023-05-04T07:15:00.340Z,1015
2023-05-04T07:20:00.257Z,1015
2023-05-04T07:25:00.223Z,1015
2023-05-04T07:30:00.338Z,1015
2023-05-04T07:35:00.226Z,1015
2023-05-04T07:40:00.239Z,1015
2023-05-04T07:45:00.287Z,1015
2023-05-04T07:50:00.251Z,1015
2023-05-04T07:55:00.206Z,1015
2023-05-04T08:00:00.372Z,1015
2023-05-04T08:05:00.211Z,1015
2023-05-04T08:10:00.284Z,1015
2023-05-04T08:15:00.299Z,1015
2023-05-04T08:20:00.223Z,1015
2023-05-04T08:25:00.251Z,1015
2023-05-04T08:30:00.276Z,1014
2023-05-04T08:35:00.277Z,1014
2023-05-04T08:40:00.230Z,1014
2023-05-04T08:45:00.229Z,1014
2023-05-04T08:50:00.283Z,1014
2023-05-04T08:55:00.279Z,1014
2023-05-04T09:00:00.306Z,1014
2023-05-04T09:05:00.205Z,1014
2023-05-04T09:10:00.287Z,1014
2023-05-04T09:15:00.293Z,1014
2023-05-04T09:20:00.286Z,1014
2023-05-04T09:25:00.283Z,1014
2023-05-04T09:30:00.280Z,1014
2023-05-04T09:35:00.257Z,1014
2023-05-04T09:40:00.348Z,1014
2023-05-04T09:45:00.299Z,1014
2023-05-04T09:50:00.219Z,1014
2023-05-04T09:55:00.267Z,1014
2023-05-04T10:00:00.294Z,1014
2023-05-04T10:05:00.301Z,1014
2023-05-04T10:10:00.201Z,1014
2023-05-04T10:15:00.241Z,1013
2023-05-04T10:20:00.263Z,1013
2023-05-04T10:25:00.264Z,1013
2023-05-04T10:30:00.225Z,1013
2023-05-04T10:35:00.301Z,1013
2023-05-04T10:40:00.239Z,1013
2023-05-04T10:45:00.258Z,1013
2023-05-04T10:50:00.224Z,1013
2023-05-04T10:55:00.315Z,1013
2023-05-04T11:00:00.396Z,1013
2023-05-04T11:05:00.267Z,1013
2023-05-04T11:10:00.302Z,1013
2023-05-04T11:15:00.262Z,1013
2023-05-04T11:20:00.206Z,1013
2023-05-04T11:25:00.285Z,1012
2023-05-04T11:30:00.360Z,1012
2023-05-04T11:35:00.290Z,1012
2023-05-04T11:40:00.240Z,1012
2023-05-04T11:45:00.238Z,1012
2023-05-04T11:50:00.230Z,1012
2023-05-04T11:55:00.533Z,1012
2023-05-04T12:00:00.249Z,1012
2023-05-04T12:05:00.276Z,1012
2023-05-04T12:10:00.302Z,1012
2023-05-04T12:15:00.216Z,1012
2023-05-04T12:20:00.243Z,1012
2023-05-04T12:25:00.298Z,1012
2023-05-04T12:30:00.341Z,1012
2023-05-04T12:35:00.231Z,1012
2023-05-04T12:40:00.263Z,1012
2023-05-04T12:45:00.295Z,1012
2023-05-04T12:50:00.208Z,1011
2023-05-04T12:55:00.272Z,1011
2023-05-04T13:00:00.265Z,1011
2023-05-04T13:05:00.253Z,1011
2023-05-04T13:10:00.269Z,1011
2023-05-04T13:15:00.301Z,1011
2023-05-04T13:20:00.257Z,1011
2023-05-04T13:25:00.338Z,1011
2023-05-04T13:30:00.256Z,1011
2023-05-04T13:35:00.240Z,1011
2023-05-04T13:40:00.243Z,1011
2023-05-04T13:45:00.253Z,1011
2023-05-04T13:50:00.288Z,1010
2023-05-04T13:55:00.268Z,1010
2023-05-04T14:00:06.530Z,1010
2023-05-04T14:05:00.303Z,1010
2023-05-04T14:10:00.291Z,1010
2023-05-04T14:15:00.255Z,1010
2023-05-04T14:20:00.199Z,1010
2023-05-04T14:25:00.219Z,1010
2023-05-04T14:30:00.256Z,1010
2023-05-04T14:35:00.230Z,1010
2023-05-04T14:40:00.319Z,1010
2023-05-04T14:45:00.208Z,1010
2023-05-04T14:50:00.205Z,1010
2023-05-04T14:55:00.291Z,1010
2023-05-04T15:00:00.422Z,1010
2023-05-04T15:05:00.297Z,1010
2023-05-04T15:10:00.306Z,1010
2023-05-04T15:15:00.247Z,1010
2023-05-04T15:20:00.300Z,1009
2023-05-04T15:25:00.261Z,1009
2023-05-04T15:30:00.236Z,1009
2023-05-04T15:35:05.359Z,1009
2023-05-04T15:40:02.236Z,1009
2023-05-04T15:45:00.289Z,1009
2023-05-04T15:50:00.277Z,1009
2023-05-04T15:55:12.362Z,1009
2023-05-04T16:00:00.255Z,1009
2023-05-04T16:05:00.231Z,1009
2023-05-04T16:10:00.675Z,1009
2023-05-04T16:15:00.300Z,1009
2023-05-04T16:20:00.293Z,1009
2023-05-04T16:25:00.352Z,1009
2023-05-04T16:30:00.390Z,1009
2023-05-04T16:35:00.280Z,1009
2023-05-04T16:40:00.450Z,1009
2023-05-04T16:45:00.307Z,1009
2023-05-04T16:50:00.772Z,1008
2023-05-04T16:55:00.219Z,1008
2023-05-04T17:00:00.229Z,1008
2023-05-04T17:05:00.323Z,1009
2023-05-04T17:10:00.272Z,1008
2023-05-04T17:15:00.258Z,1008
2023-05-04T17:20:00.196Z,1008
2023-05-04T17:25:00.214Z,1008
2023-05-04T17:30:00.268Z,1008
2023-05-04T17:35:08.411Z,1008
2023-05-04T17:40:00.315Z,1008
2023-05-04T17:45:00.279Z,1008
2023-05-04T17:50:00.262Z,1008
2023-05-04T17:55:00.233Z,1008
2023-05-04T18:00:00.242Z,1008
2023-05-04T18:05:00.236Z,1009
2023-05-04T18:10:00.192Z,1009
2023-05-04T18:15:00.296Z,1009
2023-05-04T18:20:00.215Z,1009
2023-05-04T18:25:00.226Z,1009
2023-05-04T18:30:00.334Z,1009
2023-05-04T18:35:00.271Z,1009
2023-05-04T18:40:00.287Z,1009
2023-05-04T18:45:00.245Z,1009
2023-05-04T18:50:00.251Z,1009
2023-05-04T18:55:00.284Z,1009
2023-05-04T19:00:00.300Z,1009
2023-05-04T19:05:00.308Z,1009
2023-05-04T19:10:00.293Z,1009
2023-05-04T19:15:00.287Z,1009
2023-05-04T19:20:00.262Z,1009
2023-05-04T19:25:00.240Z,1009
2023-05-04T19:30:00.251Z,1009
2023-05-04T19:35:00.277Z,1009
2023-05-04T19:40:00.248Z,1009
2023-05-04T19:45:00.257Z,1009
2023-05-04T19:50:00.295Z,1009
2023-05-04T19:55:00.285Z,1009
2023-05-04T20:00:00.261Z,1009
2023-05-04T20:05:00.311Z,1009
2023-05-04T20:10:00.349Z,1009
2023-05-04T20:15:00.218Z,1009
2023-05-04T20:20:00.289Z,1009
2023-05-04T20:25:00.245Z,1009
2023-05-04T20:30:00.232Z,1009
2023-05-04T20:35:00.203Z,1009
2023-05-04T20:40:00.228Z,1009
2023-05-04T20:45:00.236Z,1009
2023-05-04T20:50:00.236Z,1009
2023-05-04T20:55:00.270Z,1009
2023-05-04T21:00:00.236Z,1009
2023-05-04T21:05:00.229Z,1009
2023-05-04T21:10:00.268Z,1009
2023-05-04T21:15:00.231Z,1009
2023-05-04T21:20:00.203Z,1009
2023-05-04T21:25:00.224Z,1008
2023-05-04T21:30:00.185Z,1009
2023-05-04T21:35:00.226Z,1008
2023-05-04T21:40:00.237Z,1008
2023-05-04T21:45:00.231Z,1008
2023-05-04T21:50:00.201Z,1008
2023-05-04T21:55:00.286Z,1008
2023-05-04T22:00:00.185Z,1008
2023-05-04T22:05:00.236Z,1008
2023-05-04T22:10:00.216Z,1008
2023-05-04T22:15:00.223Z,1008
2023-05-04T22:20:00.248Z,1008
2023-05-04T22:25:00.313Z,1008
2023-05-04T22:30:00.207Z,1008
2023-05-04T22:35:00.277Z,1008
2023-05-04T22:40:00.200Z,1008
2023-05-04T22:45:00.301Z,1008
2023-05-04T22:50:00.232Z,1008
2023-05-04T22:55:00.312Z,1008
2023-05-04T23:00:00.264Z,1008
2023-05-04T23:05:00.166Z,1008
2023-05-04T23:10:00.291Z,1008
2023-05-04T23:15:00.297Z,1008
2023-05-04T23:20:00.246Z,1008
2023-05-04T23:25:00.209Z,1008
2023-05-04T23:30:00.205Z,1008
2023-05-04T23:35:00.340Z,1008
2023-05-04T23:40:00.251Z,1008
2023-05-04T23:45:00.220Z,1008
2023-05-04T23:50:00.174Z,1008
2023-05-04T23:55:00.190Z,1008
